Aérodrome :
LOGIN :

S'inscrire | Disclaimer

   EN    FR    IT 

 










Légende :    VFR   VFR Marginal   IFR   IFR Intensif   IFR Très Intensif
Visi : 
Plafond : 
>= 8 km
>= 3000ft
5 à 8 km
1000 à 3000 ft
1500m à 5 km
500 à 1000 ft
800 à 1500m
200 à 500 ft
< 800m
< 200 ft
Symboles :   Orages  Brouillard  Fortes neiges  Fortes précipitations  Vent > 20 kt
SIGMETs :   Divers  Orages  Givrage  Turbulence  Onde Orograph.  Cendres Volcan.







- Altitude de l'aérodrome : 1084 ft
- Code IATA : EPL
- Voir les cartes d'approche


LFSG - Épinal-Mirecourt

DERNIER METAR :
  • 230800Z AUTO 27009KT CAVOK 22/14 Q1019

METARs EXPIRÉS :
  • 230730Z AUTO 26010KT CAVOK 21/13 Q1019
  • 230700Z AUTO 26008KT 230V290 CAVOK 20/12 Q1019
  • 230630Z AUTO 27009KT CAVOK 19/13 Q1019
  • 230600Z AUTO 27010KT CAVOK 18/13 Q1018
  • 230530Z AUTO 27008KT CAVOK 18/13 Q1018

TAF N/A
Pas de NOTAMs connus pour ce terrain.



MET'MAP, la Météo Aéronautique d'un coup d'oeil ! - Copyright ORBIFLY Décembre 2007 - Disclaimer

ORBIFLY MET'MAP TEAM :

Programmation & Développement : Alexandra Zaïnal
Conception & Développement : Baudouin d'Aumeries
Co-Programmation & Développement : Marc-Olivier Méhu
Soutien technique & logistique : Manuel Goepfert

Contact : metmap@orbifly.com




SOURCES & CREDITS :

   NOAA